Time;durP1;ratioP1;P1;durP2;ratioP2;P2;SDS_P1;SDS_P2;PMS_P1;PMS_P2;Temp;Humidity;BMP_temperature;BMP_pressure;BME280_temperature;BME280_humidity;BME280_pressure;Samples;Min_cycle;Max_cycle;Signal;HPM_P1;HPM_P2
2021/03/21 00:01:51;;;;;;;47.78;32.08;;;51.60;2227.20;;;;;;5033198;28;20048;-71
2021/03/21 00:04:17;;;;;;;49.72;32.92;;;51.60;2227.20;;;;;;5051235;28;20112;-71
2021/03/21 00:06:44;;;;;;;51.60;33.53;;;51.60;2227.20;;;;;;5050432;28;20467;-71
2021/03/21 00:09:11;;;;;;;51.35;34.55;;;51.50;2227.20;;;;;;5049596;28;20025;-72
2021/03/21 00:11:39;;;;;;;51.47;34.88;;;51.50;2227.20;;;;;;5049220;28;20045;-72
2021/03/21 00:14:06;;;;;;;50.60;32.90;;;51.60;2227.20;;;;;;5047851;28;20041;-71
2021/03/21 00:16:33;;;;;;;48.45;31.52;;;51.60;2227.20;;;;;;5051360;28;20048;-72
2021/03/21 00:19:00;;;;;;;43.47;28.63;;;51.60;2227.20;;;;;;5050483;28;20040;-72
2021/03/21 00:21:26;;;;;;;42.05;28.33;;;51.50;2227.20;;;;;;5037312;28;20479;-72
2021/03/21 00:23:52;;;;;;;40.28;27.38;;;51.50;2227.20;;;;;;5055495;28;20033;-72
2021/03/21 00:26:18;;;;;;;43.92;27.98;;;51.50;2227.20;;;;;;5052652;28;20090;-71
2021/03/21 00:28:44;;;;;;;41.40;27.35;;;51.40;2227.20;;;;;;5045288;28;20040;-72
2021/03/21 00:31:13;;;;;;;40.20;26.48;;;51.40;2227.20;;;;;;5055089;28;20387;-71
2021/03/21 00:33:40;;;;;;;39.75;26.48;;;51.30;2227.20;;;;;;5055423;28;20090;-72
2021/03/21 00:36:08;;;;;;;42.92;28.02;;;51.30;2227.20;;;;;;5053554;28;20029;-71
2021/03/21 00:38:38;;;;;;;41.95;27.95;;;51.20;2227.20;;;;;;5054469;28;20040;-71
2021/03/21 00:41:05;;;;;;;42.20;28.63;;;51.20;2227.20;;;;;;5048235;28;20034;-71
2021/03/21 00:43:37;;;;;;;44.13;29.77;;;51.20;2227.20;;;;;;5052565;28;20397;-78
2021/03/21 00:46:03;;;;;;;42.83;29.08;;;26.50;2201.60;;;;;;5042760;28;20486;-72
2021/03/21 00:48:34;;;;;;;48.05;31.35;;;26.50;2201.60;;;;;;5051310;28;20514;-70
2021/03/21 00:51:00;;;;;;;44.30;29.05;;;51.20;2227.20;;;;;;5054567;28;20478;-71
2021/03/21 00:53:26;;;;;;;45.13;30.05;;;26.40;2201.60;;;;;;5051552;28;20081;-72
2021/03/21 00:55:52;;;;;;;40.92;27.92;;;26.50;2201.60;;;;;;5042291;28;20025;-72
2021/03/21 00:58:19;;;;;;;49.83;31.17;;;26.40;2201.60;;;;;;5053868;28;20083;-72
2021/03/21 01:00:50;;;;;;;45.85;30.25;;;26.30;2201.60;;;;;;5054191;28;20029;-72
2021/03/21 01:03:16;;;;;;;44.17;28.08;;;;;;;;;;5053338;28;20025;-72
2021/03/21 01:05:50;;;;;;;49.20;31.95;;;;;;;;;;5026563;28;20501;-71
2021/03/21 01:08:15;;;;;;;;;;;;;;;;;;5036432;28;20025;-72
2021/03/21 01:10:41;;;;;;;47.70;29.73;;;26.50;2201.60;;;;;;5053554;28;19921;-71
2021/03/21 01:13:07;;;;;;;49.63;32.25;;;26.40;2201.60;;;;;;5053389;28;20040;-71
2021/03/21 01:15:33;;;;;;;50.08;31.75;;;26.00;2201.60;;;;;;5052579;28;20108;-74
2021/03/21 01:17:59;;;;;;;55.67;32.20;;;25.90;2201.60;;;;;;5051997;28;20428;-72
2021/03/21 01:20:27;;;;;;;46.92;30.60;;;25.80;2201.60;;;;;;5054147;28;20494;-71
2021/03/21 01:22:53;;;;;;;46.47;30.15;;;25.90;2201.60;;;;;;5053505;28;20025;-72
2021/03/21 01:25:22;;;;;;;51.90;31.48;;;25.70;2201.60;;;;;;5046825;28;20036;-71
2021/03/21 01:27:48;;;;;;;46.33;31.40;;;25.70;2201.60;;;;;;5039201;28;20021;-71
2021/03/21 01:30:14;;;;;;;47.47;32.00;;;25.60;2201.60;;;;;;5030190;28;20033;-72
2021/03/21 01:32:40;;;;;;;49.63;31.08;;;25.80;2201.60;;;;;;5048992;28;20032;-71
2021/03/21 01:35:08;;;;;;;50.95;32.45;;;0.40;2201.60;;;;;;5054153;28;20033;-71
2021/03/21 01:37:33;;;;;;;46.67;30.80;;;25.60;2201.60;;;;;;5038846;28;20108;-72
2021/03/21 01:39:59;;;;;;;48.70;31.15;;;0.90;2201.60;;;;;;5034522;28;20131;-71
2021/03/21 01:42:25;;;;;;;49.47;30.52;;;0.90;2201.60;;;;;;5050990;28;20025;-72
2021/03/21 01:44:55;;;;;;;46.42;30.35;;;25.60;2201.60;;;;;;5035229;28;20492;-71
2021/03/21 01:47:32;;;;;;;44.10;30.52;;;0.80;2201.60;;;;;;5046178;28;20434;-70
2021/03/21 01:50:00;;;;;;;45.63;28.23;;;0.70;2201.60;;;;;;5037665;28;20044;-73
2021/03/21 01:52:39;;;;;;;39.58;27.75;;;0.60;2201.60;;;;;;5053266;28;20033;-71
2021/03/21 01:55:12;;;;;;;43.42;28.27;;;0.50;2201.60;;;;;;5053594;28;20471;-71
2021/03/21 01:57:38;;;;;;;38.17;26.48;;;0.50;2201.60;;;;;;5042820;28;20025;-72
2021/03/21 02:00:08;;;;;;;40.45;26.83;;;0.40;2201.60;;;;;;5051657;28;20079;-72
2021/03/21 02:02:34;;;;;;;39.65;26.38;;;0.40;2201.60;;;;;;5045744;28;20014;-72
2021/03/21 02:05:00;;;;;;;43.38;26.65;;;0.40;2201.60;;;;;;5052489;28;20029;-73
2021/03/21 02:07:28;;;;;;;44.03;28.20;;;0.40;2201.60;;;;;;5044083;28;20102;-72
2021/03/21 02:10:21;;;;;;;46.38;28.83;;;0.30;2201.60;;;;;;5038514;28;20041;-73
2021/03/21 02:13:06;;;;;;;41.67;26.65;;;0.30;2201.60;;;;;;5041019;28;20037;-72
2021/03/21 02:15:50;;;;;;;40.78;28.10;;;0.30;2201.60;;;;;;5053300;28;20490;-72
2021/03/21 02:18:22;;;;;;;41.58;27.50;;;0.20;2201.60;;;;;;5046289;28;20028;-72
2021/03/21 02:21:07;;;;;;;42.40;27.17;;;0.10;2201.60;;;;;;5051054;28;20057;-72
2021/03/21 02:23:57;;;;;;;40.53;26.05;;;0.00;2201.60;;;;;;5046747;28;20068;-72
2021/03/21 02:26:44;;;;;;;41.22;25.33;;;0.00;2201.60;;;;;;5044612;28;20025;-72
2021/03/21 02:29:32;;;;;;;38.67;25.95;;;0.00;2201.60;;;;;;5027656;28;20082;-72
2021/03/21 02:32:06;;;;;;;37.85;25.38;;;0.00;2201.60;;;;;;5040496;28;20432;-72
2021/03/21 02:34:47;;;;;;;40.08;25.48;;;0.00;2201.60;;;;;;5053275;28;20033;-70
2021/03/21 02:37:36;;;;;;;36.05;24.00;;;0.00;2201.60;;;;;;5026320;28;20022;-72
2021/03/21 02:40:27;;;;;;;39.10;25.15;;;0.00;2201.60;;;;;;5052932;28;20036;-72
2021/03/21 02:43:05;;;;;;;39.78;25.63;;;12.90;2201.60;;;;;;5049475;28;20029;-73
2021/03/21 02:45:35;;;;;;;38.58;24.45;;;13.00;2201.60;;;;;;5055569;28;20013;-74
2021/03/21 02:48:12;;;;;;;39.97;24.23;;;12.90;2201.60;;;;;;5052865;28;20025;-72
2021/03/21 02:50:44;;;;;;;38.20;25.10;;;13.00;2201.60;;;;;;5053289;28;20016;-71
2021/03/21 02:53:45;;;;;;;35.80;24.00;;;13.10;2201.60;;;;;;5052367;28;20524;-71
2021/03/21 02:56:18;;;;;;;36.30;24.40;;;13.20;2201.60;;;;;;5050854;28;20486;-73
2021/03/21 02:58:50;;;;;;;35.85;23.65;;;13.30;2201.60;;;;;;5050211;28;20084;-71
2021/03/21 03:01:30;;;;;;;36.60;24.67;;;13.20;2201.60;;;;;;5054571;28;20032;-71
2021/03/21 03:04:00;;;;;;;37.88;25.23;;;13.30;2201.60;;;;;;5046225;28;20140;-70
2021/03/21 03:06:31;;;;;;;34.17;23.60;;;13.30;2201.60;;;;;;5043545;28;20059;-71
2021/03/21 03:09:04;;;;;;;34.88;23.45;;;13.30;2201.60;;;;;;5051328;28;20021;-71
2021/03/21 03:11:46;;;;;;;33.53;22.38;;;13.30;2201.60;;;;;;5040882;28;20057;-72
2021/03/21 03:14:20;;;;;;;35.65;23.50;;;13.30;2201.60;;;;;;5034544;28;20033;-71
2021/03/21 03:17:04;;;;;;;38.78;23.90;;;13.30;2201.60;;;;;;5051077;28;20024;-73
2021/03/21 03:19:54;;;;;;;36.10;23.83;;;13.20;2201.60;;;;;;5044401;28;20029;-73
2021/03/21 03:22:27;;;;;;;32.65;23.25;;;13.30;2201.60;;;;;;5052108;28;20025;-73
2021/03/21 03:24:57;;;;;;;34.92;23.52;;;13.40;2201.60;;;;;;5032490;28;20021;-72
2021/03/21 03:27:36;;;;;;;35.97;22.40;;;13.20;2201.60;;;;;;5040103;28;20034;-72
2021/03/21 03:30:14;;;;;;;35.88;23.33;;;13.20;2201.60;;;;;;5045675;28;20143;-71
2021/03/21 03:32:40;;;;;;;38.28;25.15;;;13.20;2201.60;;;;;;5038202;28;20026;-71
2021/03/21 03:35:11;;;;;;;35.25;24.67;;;13.10;2201.60;;;;;;5051172;28;20043;-72
2021/03/21 03:37:37;;;;;;;33.67;22.75;;;13.10;2201.60;;;;;;5038599;28;20475;-71
2021/03/21 03:40:08;;;;;;;37.22;23.48;;;13.10;2201.60;;;;;;5047255;28;20044;-72
2021/03/21 03:42:53;;;;;;;34.15;23.13;;;13.10;2201.60;;;;;;5044706;28;20033;-72
2021/03/21 03:45:33;;;;;;;32.97;23.67;;;13.10;2201.60;;;;;;5037044;28;20033;-72
2021/03/21 03:48:14;;;;;;;32.35;22.10;;;13.20;2201.60;;;;;;5043030;28;20040;-71
2021/03/21 03:51:09;;;;;;;36.78;23.35;;;13.20;2201.60;;;;;;5050129;28;20541;-72
2021/03/21 03:53:41;;;;;;;33.80;22.42;;;13.20;2201.60;;;;;;5051284;28;20033;-72
2021/03/21 03:56:14;;;;;;;39.58;25.38;;;13.30;2201.60;;;;;;5051709;28;20021;-72
2021/03/21 03:59:15;;;;;;;37.03;24.70;;;13.30;2201.60;;;;;;5055497;28;20096;-72
2021/03/21 04:01:55;;;;;;;37.92;23.70;;;13.30;2201.60;;;;;;4963029;28;20043;-71
2021/03/21 04:04:31;;;;;;;34.55;23.75;;;13.40;2201.60;;;;;;4954243;28;20043;-72
2021/03/21 04:07:21;;;;;;;36.80;23.90;;;13.30;2201.60;;;;;;4953565;29;20501;-73
2021/03/21 04:09:56;;;;;;;36.65;24.33;;;13.30;2201.60;;;;;;4956109;29;20167;-73
2021/03/21 04:12:31;;;;;;;32.20;22.65;;;13.20;2201.60;;;;;;4949478;28;20529;-72
2021/03/21 04:15:21;;;;;;;35.33;22.65;;;13.30;2201.60;;;;;;4955711;29;20079;-71
2021/03/21 04:17:52;;;;;;;32.75;22.65;;;13.30;2201.60;;;;;;4953354;29;20027;-71
2021/03/21 04:20:25;;;;;;;33.70;22.63;;;13.20;2201.60;;;;;;4955162;29;20047;-71
2021/03/21 04:23:04;;;;;;;33.07;21.63;;;13.30;2201.60;;;;;;4954911;28;20489;-71
2021/03/21 04:25:37;;;;;;;33.63;21.92;;;13.20;2201.60;;;;;;4953042;29;20036;-72
2021/03/21 04:28:34;;;;;;;47.28;28.63;;;13.10;2201.60;;;;;;4952842;29;20108;-72
2021/03/21 04:31:07;;;;;;;31.40;21.30;;;13.20;2201.60;;;;;;4946808;29;20042;-71
2021/03/21 04:33:36;;;;;;;33.63;22.10;;;13.10;2201.60;;;;;;4947607;28;20043;-71
2021/03/21 04:36:12;;;;;;;34.10;22.63;;;13.10;2201.60;;;;;;4948428;29;20028;-71
2021/03/21 04:38:49;;;;;;;35.20;22.75;;;13.10;2201.60;;;;;;4983847;28;20116;-72
2021/03/21 04:41:25;;;;;;;33.75;23.50;;;13.20;2201.60;;;;;;5053444;28;20029;-71
2021/03/21 04:44:01;;;;;;;35.35;22.95;;;13.10;2201.60;;;;;;5042234;28;20028;-71
2021/03/21 04:46:37;;;;;;;34.80;23.08;;;13.20;2201.60;;;;;;5037187;28;20555;-71
2021/03/21 04:49:03;;;;;;;34.65;23.00;;;13.20;2201.60;;;;;;5053409;28;20386;-70
2021/03/21 04:51:36;;;;;;;33.22;22.90;;;13.20;2201.60;;;;;;5054975;28;20029;-71
2021/03/21 04:54:11;;;;;;;;;;;13.10;2201.60;;;;;;5054776;28;20123;-71
2021/03/21 04:57:06;;;;;;;37.47;23.15;;;13.10;2201.60;;;;;;5052279;28;19909;-71
2021/03/21 04:59:35;;;;;;;37.78;24.70;;;13.20;2201.60;;;;;;5045463;28;20036;-71
2021/03/21 05:02:28;;;;;;;39.28;23.73;;;13.30;2201.60;;;;;;5054008;28;20017;-72
2021/03/21 05:05:21;;;;;;;37.83;24.50;;;13.20;2201.60;;;;;;5054457;28;20040;-72
2021/03/21 05:07:53;;;;;;;36.85;24.02;;;13.10;2201.60;;;;;;5046935;28;20052;-72
2021/03/21 05:10:28;;;;;;;36.08;23.88;;;13.00;2201.60;;;;;;5053206;28;20033;-73
2021/03/21 05:13:31;;;;;;;38.03;24.08;;;13.00;2201.60;;;;;;5048427;28;20124;-72
2021/03/21 05:16:02;;;;;;;33.65;23.15;;;0.00;2201.60;;;;;;5051622;28;20033;-73
2021/03/21 05:18:39;;;;;;;33.75;23.88;;;0.00;2201.60;;;;;;5050880;28;20094;-71
2021/03/21 05:21:16;;;;;;;35.75;24.70;;;0.10;2201.60;;;;;;5050463;28;20075;-72
2021/03/21 05:24:07;;;;;;;35.92;23.88;;;0.20;2201.60;;;;;;5043666;28;20018;-71
2021/03/21 05:26:34;;;;;;;36.30;24.08;;;0.20;2201.60;;;;;;5040542;28;20033;-71
2021/03/21 05:28:59;;;;;;;36.90;24.90;;;0.20;2201.60;;;;;;5048418;28;20098;-72
2021/03/21 05:31:26;;;;;;;38.92;24.10;;;0.20;2201.60;;;;;;5052198;28;20409;-72
2021/03/21 05:33:52;;;;;;;35.17;23.80;;;0.20;2201.60;;;;;;5050755;28;20036;-72
2021/03/21 05:36:53;;;;;;;34.80;23.83;;;0.30;2201.60;;;;;;5050394;28;20017;-72
2021/03/21 05:39:28;;;;;;;36.08;24.17;;;0.30;2201.60;;;;;;4985159;28;20039;-71
2021/03/21 05:42:13;;;;;;;36.25;21.67;;;0.20;2201.60;;;;;;4987755;28;20134;-71
2021/03/21 05:44:59;;;;;;;31.77;22.17;;;0.20;2201.60;;;;;;4991345;28;20038;-72
2021/03/21 05:48:02;;;;;;;34.38;23.05;;;0.20;2201.60;;;;;;4985034;28;20084;-71
2021/03/21 05:50:46;;;;;;;36.90;23.05;;;0.20;2201.60;;;;;;4993689;28;20471;-71
2021/03/21 05:53:38;;;;;;;38.25;24.48;;;0.20;2201.60;;;;;;4974942;28;20034;-73
2021/03/21 05:56:29;;;;;;;37.95;24.17;;;0.50;2201.60;;;;;;4993165;28;20496;-72
2021/03/21 05:59:10;;;;;;;34.83;22.75;;;0.70;2201.60;;;;;;4991055;28;20081;-72
2021/03/21 06:01:54;;;;;;;32.83;22.60;;;0.90;2201.60;;;;;;4986805;28;20447;-72
2021/03/21 06:05:05;;;;;;;34.65;23.63;;;25.80;2201.60;;;;;;4985700;28;20153;-73
2021/03/21 06:07:33;;;;;;;33.90;22.67;;;25.90;2201.60;;;;;;4991077;28;20026;-71
2021/03/21 06:10:20;;;;;;;34.20;23.73;;;26.10;2201.60;;;;;;4991713;28;20065;-72
2021/03/21 06:13:21;;;;;;;39.22;23.98;;;26.40;2201.60;;;;;;4985701;28;20054;-72
2021/03/21 06:15:47;;;;;;;38.33;24.23;;;51.20;2227.20;;;;;;4950691;28;20052;-70
2021/03/21 06:18:18;;;;;;;37.50;24.25;;;51.20;2227.20;;;;;;4949286;28;20046;-70
2021/03/21 06:21:00;;;;;;;34.15;24.08;;;51.40;2227.20;;;;;;4954794;28;20042;-72
2021/03/21 06:23:44;;;;;;;31.85;23.13;;;51.60;2227.20;;;;;;4958220;28;20058;-72
2021/03/21 06:26:15;;;;;;;;;;;51.70;2227.20;;;;;;4955475;28;20050;-68
2021/03/21 06:28:59;;;;;;;30.40;23.00;;;51.90;2227.20;;;;;;4945751;28;19933;-70
2021/03/21 06:31:58;;;;;;;33.45;23.30;;;52.00;2227.20;;;;;;4946814;28;20030;-72
2021/03/21 06:34:31;;;;;;;35.33;24.42;;;76.90;2227.20;;;;;;4949034;28;20046;-71
2021/03/21 06:36:58;;;;;;;41.50;26.60;;;77.40;2227.20;;;;;;4953293;28;20089;-69
2021/03/21 06:39:39;;;;;;;46.33;28.67;;;77.70;2201.60;;;;;;4949054;28;20125;-71
2021/03/21 06:42:26;;;;;;;45.05;30.98;;;102.40;2201.60;;;;;;4955930;28;20035;-71
2021/03/21 06:45:13;;;;;;;39.45;25.73;;;77.60;2150.40;;;;;;4954996;28;20035;-74
2021/03/21 06:48:07;;;;;;;36.75;26.92;;;77.70;2150.40;;;;;;4949038;28;20035;-74
2021/03/21 06:50:53;;;;;;;35.53;24.98;;;102.50;2099.20;;;;;;4948499;28;20028;-71
2021/03/21 06:53:44;;;;;;;48.60;30.98;;;103.00;1996.80;;;;;;5018158;28;20104;-73
2021/03/21 06:56:30;;;;;;;41.47;27.90;;;128.50;1971.20;;;;;;5050565;28;20017;-73
2021/03/21 06:59:16;;;;;;;33.25;23.77;;;153.70;1894.40;;;;;;5047144;28;20029;-70
2021/03/21 07:01:53;;;;;;;34.70;25.42;;;154.10;1843.20;;;;;;5041854;28;20040;-71
2021/03/21 07:05:02;;;;;;;29.98;23.52;;;154.40;1715.20;;;;;;5044290;28;20017;-67
2021/03/21 07:07:46;;;;;;;30.48;23.75;;;179.40;1715.20;;;;;;5040472;28;20024;-73
2021/03/21 07:10:58;;;;;;;27.60;22.50;;;179.60;1664.00;;;;;;5039224;28;20025;-76
2021/03/21 07:14:00;;;;;;;29.13;22.52;;;179.90;1612.80;;;;;;4938415;28;20051;-71
2021/03/21 07:16:47;;;;;;;29.52;21.85;;;205.30;1587.20;;;;;;4948898;28;20027;-71
2021/03/21 07:19:50;;;;;;;29.05;22.80;;;205.60;1484.80;;;;;;4944994;28;20151;-71
2021/03/21 07:22:18;;;;;;;36.10;24.65;;;;;;;;;;4892828;29;20619;-69
2021/03/21 07:24:58;;;;;;;84.80;46.47;;;205.60;1894.40;;;;;;4890232;29;20045;-70
2021/03/21 07:27:53;;;;;;;35.85;24.95;;;205.10;1484.80;;;;;;4892888;29;20047;-73
2021/03/21 07:30:29;;;;;;;32.47;24.15;;;205.40;1408.00;;;;;;4893611;29;20586;-78
2021/03/21 07:32:57;;;;;;;37.65;25.95;;;204.80;1459.20;;;;;;4897581;29;20171;-73
2021/03/21 07:35:29;;;;;;;38.35;25.83;;;179.50;1510.40;;;;;;4897531;29;20059;-74
2021/03/21 07:38:35;;;;;;;30.35;24.08;;;204.80;1510.40;;;;;;4896486;29;20495;-69
2021/03/21 07:41:38;;;;;;;34.95;26.25;;;205.10;1484.80;;;;;;4896442;29;20036;-78
2021/03/21 07:44:29;;;;;;;32.22;22.98;;;230.70;1484.80;;;;;;4890442;29;20032;-77
2021/03/21 07:47:22;;;;;;;28.13;21.25;;;230.60;1382.40;;;;;;4896516;29;20056;-70
2021/03/21 07:50:12;;;;;;;54.78;38.17;;;230.50;1382.40;;;;;;4942615;28;20031;-67
2021/03/21 07:52:59;;;;;;;36.67;28.48;;;205.50;1433.60;;;;;;4969521;28;20046;-69
2021/03/21 07:55:32;;;;;;;272.90;184.43;;;205.00;1433.60;;;;;;4969958;28;20039;-70
2021/03/21 07:58:15;;;;;;;253.05;186.88;;;179.70;1510.40;;;;;;4974608;28;20948;-67
2021/03/21 08:00:41;;;;;;;92.70;83.05;;;154.40;1561.60;;;;;;5032382;28;20387;-67
2021/03/21 08:03:20;;;;;;;35.83;26.48;;;154.10;1612.80;;;;;;5043274;28;20022;-69
2021/03/21 08:05:54;;;;;;;35.05;24.95;;;154.20;1638.40;;;;;;5052184;28;20026;-69
2021/03/21 08:08:26;;;;;;;36.53;24.85;;;154.00;1664.00;;;;;;5049342;28;20038;-68
2021/03/21 08:10:56;;;;;;;39.00;25.17;;;154.30;1612.80;;;;;;5043459;28;20041;-67
2021/03/21 08:13:35;;;;;;;39.70;25.85;;;154.10;1664.00;;;;;;5028744;28;20060;-68
2021/03/21 08:16:01;;;;;;;42.08;32.80;;;154.10;1664.00;;;;;;5041130;28;20029;-69
2021/03/21 08:18:33;;;;;;;44.30;31.50;;;153.80;1689.60;;;;;;5040807;28;20471;-70
2021/03/21 08:21:06;;;;;;;36.10;26.45;;;153.70;1689.60;;;;;;5048915;28;20033;-71
2021/03/21 08:23:41;;;;;;;30.60;22.58;;;153.70;1715.20;;;;;;5037551;28;20088;-68
2021/03/21 08:26:13;;;;;;;36.10;27.48;;;153.60;1689.60;;;;;;5041219;28;20033;-69
2021/03/21 08:29:03;;;;;;;38.25;26.90;;;128.50;1715.20;;;;;;5037935;28;20025;-70
2021/03/21 08:31:38;;;;;;;39.30;25.70;;;128.30;1792.00;;;;;;5041365;28;20060;-68
2021/03/21 08:34:36;;;;;;;43.35;29.55;;;128.20;1792.00;;;;;;5042262;28;20108;-77
2021/03/21 08:37:27;;;;;;;37.80;26.50;;;103.30;1792.00;;;;;;4989582;28;20041;-69
2021/03/21 08:39:59;;;;;;;44.38;28.98;;;103.00;1868.80;;;;;;4987795;28;20038;-68
2021/03/21 08:42:32;;;;;;;36.38;25.45;;;102.90;1868.80;;;;;;4981375;28;20085;-73
2021/03/21 08:45:21;;;;;;;32.58;22.88;;;102.70;1894.40;;;;;;4984540;28;20562;-70
2021/03/21 08:47:55;;;;;;;38.97;26.83;;;102.60;1894.40;;;;;;4986359;28;20415;-69
2021/03/21 08:50:31;;;;;;;36.58;26.23;;;102.50;1920.00;;;;;;4981720;28;20534;-68
2021/03/21 08:52:56;;;;;;;38.00;23.50;;;77.70;1971.20;;;;;;4983940;28;20038;-69
2021/03/21 08:55:26;;;;;;;38.70;26.75;;;77.70;1945.60;;;;;;4980048;28;20057;-68
2021/03/21 08:57:52;;;;;;;39.25;26.98;;;77.70;2022.40;;;;;;4975686;28;20105;-69
2021/03/21 09:00:27;;;;;;;37.20;25.38;;;77.50;2048.00;;;;;;4975679;28;20046;-68
2021/03/21 09:02:53;;;;;;;37.90;24.60;;;77.50;2048.00;;;;;;4985733;28;20062;-69
2021/03/21 09:05:21;;;;;;;32.92;23.70;;;77.50;2048.00;;;;;;4985260;28;20049;-70
2021/03/21 09:07:50;;;;;;;32.90;24.05;;;77.50;2073.60;;;;;;4984637;28;20046;-73
2021/03/21 09:10:29;;;;;;;32.60;23.30;;;77.60;2073.60;;;;;;4985805;28;20042;-72
2021/03/21 09:13:15;;;;;;;35.10;25.02;;;77.60;2099.20;;;;;;4978056;28;21731;-74
2021/03/21 09:15:43;;;;;;;33.60;23.77;;;77.70;2073.60;;;;;;5043870;28;20409;-71
2021/03/21 09:18:19;;;;;;;43.85;28.63;;;77.70;2073.60;;;;;;5045645;28;20120;-72
2021/03/21 09:20:52;;;;;;;53.60;34.97;;;102.50;2073.60;;;;;;5048364;28;20060;-72
2021/03/21 09:23:40;;;;;;;40.85;27.50;;;102.50;2073.60;;;;;;5048536;28;20104;-73
2021/03/21 09:26:11;;;;;;;64.80;45.90;;;102.60;2048.00;;;;;;5053599;28;20048;-72
2021/03/21 09:28:40;;;;;;;38.35;26.95;;;102.40;2073.60;;;;;;5057413;28;20044;-73
2021/03/21 09:31:11;;;;;;;38.75;26.70;;;102.40;2073.60;;;;;;5046340;28;20033;-71
2021/03/21 09:33:46;;;;;;;34.83;24.17;;;102.50;2073.60;;;;;;5048480;28;20483;-71
2021/03/21 09:36:16;;;;;;;38.30;25.85;;;102.50;2073.60;;;;;;5046665;28;20037;-71
2021/03/21 09:38:52;;;;;;;42.35;27.60;;;102.40;2099.20;;;;;;5045895;28;20112;-72
2021/03/21 09:41:18;;;;;;;45.60;29.48;;;102.40;2124.80;;;;;;5052620;28;20029;-70
2021/03/21 09:43:48;;;;;;;50.33;32.13;;;77.40;2150.40;;;;;;5044095;28;20060;-72
2021/03/21 09:46:23;;;;;;;45.65;30.48;;;102.40;2124.80;;;;;;5051607;28;20501;-74
2021/03/21 09:49:06;;;;;;;43.72;26.77;;;102.50;2124.80;;;;;;5045507;28;20040;-71
2021/03/21 09:51:51;;;;;;;39.65;24.40;;;102.50;2124.80;;;;;;5043206;28;20021;-71
2021/03/21 09:54:20;;;;;;;32.15;23.02;;;102.50;2099.20;;;;;;5041209;28;20051;-71
2021/03/21 09:57:19;;;;;;;33.17;23.40;;;102.40;2048.00;;;;;;5039853;28;20033;-71
2021/03/21 09:59:56;;;;;;;40.85;24.15;;;102.50;2073.60;;;;;;5040678;28;20486;-71
2021/03/21 10:02:37;;;;;;;34.10;23.20;;;102.40;1996.80;;;;;;5043494;28;20545;-71
2021/03/21 10:05:31;;;;;;;34.53;25.08;;;102.60;2048.00;;;;;;5039028;28;20482;-71
2021/03/21 10:08:05;;;;;;;37.08;23.48;;;102.60;2099.20;;;;;;4968603;28;20043;-68
2021/03/21 10:10:44;;;;;;;35.92;24.08;;;102.80;2022.40;;;;;;4964807;28;20134;-68
2021/03/21 10:13:11;;;;;;;44.53;30.15;;;103.10;2022.40;;;;;;4968997;28;20117;-69
2021/03/21 10:16:08;;;;;;;37.50;29.13;;;128.00;2048.00;;;;;;4969999;28;20114;-68
2021/03/21 10:18:44;;;;;;;40.15;26.42;;;128.30;2022.40;;;;;;4961987;28;20147;-69
2021/03/21 10:21:27;;;;;;;36.65;25.52;;;128.50;1996.80;;;;;;4971864;28;20041;-68
2021/03/21 10:23:58;;;;;;;40.30;30.35;;;128.70;1945.60;;;;;;4968727;28;20038;-70
2021/03/21 10:26:29;;;;;;;41.03;24.52;;;128.80;1894.40;;;;;;4964422;28;20390;-69
2021/03/21 10:28:55;;;;;;;34.17;23.70;;;128.90;1868.80;;;;;;4975080;28;20035;-70
2021/03/21 10:31:21;;;;;;;37.72;23.23;;;128.90;1868.80;;;;;;4993126;28;20081;-80
2021/03/21 10:33:48;;;;;;;34.30;23.58;;;153.60;1868.80;;;;;;4997527;28;20042;-69
2021/03/21 10:36:39;;;;;;;35.47;24.35;;;128.80;1868.80;;;;;;4984431;28;20030;-68
2021/03/21 10:39:11;;;;;;;34.13;24.63;;;128.80;1868.80;;;;;;4981208;28;20527;-68
2021/03/21 10:42:02;;;;;;;36.80;25.23;;;128.60;1894.40;;;;;;4986569;28;20150;-68
2021/03/21 10:44:31;;;;;;;47.55;34.20;;;128.50;1920.00;;;;;;4999531;28;20041;-70
2021/03/21 10:47:03;;;;;;;37.42;25.98;;;128.40;1920.00;;;;;;5045396;28;20100;-74
2021/03/21 10:49:46;;;;;;;50.60;38.53;;;128.30;1920.00;;;;;;5046466;28;20028;-72
2021/03/21 10:52:38;;;;;;;38.60;27.58;;;128.40;1971.20;;;;;;5032203;28;20017;-75
2021/03/21 10:55:20;;;;;;;35.55;25.75;;;128.60;1920.00;;;;;;4966755;28;20051;-73
2021/03/21 10:57:48;;;;;;;35.72;25.55;;;128.40;1945.60;;;;;;4970516;28;20037;-72
2021/03/21 11:00:28;;;;;;;35.05;24.75;;;128.10;1971.20;;;;;;4966783;28;20606;-69
2021/03/21 11:03:05;;;;;;;47.72;31.75;;;128.40;1971.20;;;;;;4970882;28;20037;-69
2021/03/21 11:05:44;;;;;;;41.00;27.40;;;128.70;2048.00;;;;;;4962496;28;20039;-72
2021/03/21 11:08:14;;;;;;;33.78;24.48;;;153.70;1945.60;;;;;;4966552;28;20043;-72
2021/03/21 11:10:43;;;;;;;59.25;42.63;;;153.70;1920.00;;;;;;4972667;28;20444;-78
2021/03/21 11:13:12;;;;;;;57.38;45.25;;;153.80;1920.00;;;;;;4969248;28;20043;-71
2021/03/21 11:15:46;;;;;;;45.15;31.55;;;153.70;1945.60;;;;;;4966217;28;20053;-71
2021/03/21 11:18:24;;;;;;;36.58;26.27;;;153.90;1920.00;;;;;;4969639;28;20497;-72
2021/03/21 11:21:03;;;;;;;40.97;27.90;;;154.00;1894.40;;;;;;4969908;28;20034;-74
2021/03/21 11:23:31;;;;;;;45.45;31.23;;;153.80;1920.00;;;;;;4981008;28;20026;-73
2021/03/21 11:25:57;;;;;;;39.10;27.10;;;153.90;1920.00;;;;;;4973795;28;20047;-73
2021/03/21 11:28:38;;;;;;;35.33;24.27;;;154.10;1843.20;;;;;;4970861;28;20081;-69
2021/03/21 11:31:07;;;;;;;44.35;26.35;;;153.60;1868.80;;;;;;4976233;28;20033;-68
2021/03/21 11:33:39;;;;;;;41.40;26.20;;;153.70;1920.00;;;;;;5042626;28;20444;-69
2021/03/21 11:36:31;;;;;;;34.72;24.00;;;154.10;1920.00;;;;;;5045329;28;20029;-69
2021/03/21 11:38:57;;;;;;;35.42;27.20;;;154.20;1868.80;;;;;;4969956;28;20038;-68
2021/03/21 11:41:28;;;;;;;37.17;27.33;;;154.20;1894.40;;;;;;4965617;28;20102;-69
2021/03/21 11:44:08;;;;;;;32.47;23.77;;;154.30;1920.00;;;;;;4968883;28;20047;-68
2021/03/21 11:46:34;;;;;;;33.90;25.60;;;154.40;1843.20;;;;;;4971934;28;20090;-69
2021/03/21 11:49:00;;;;;;;32.28;24.00;;;154.10;1843.20;;;;;;4970612;28;20043;-68
2021/03/21 11:51:27;;;;;;;31.77;23.45;;;154.10;1868.80;;;;;;4969494;28;20502;-69
2021/03/21 11:53:54;;;;;;;35.22;24.48;;;154.10;1868.80;;;;;;4968125;28;20054;-70
2021/03/21 11:56:25;;;;;;;34.33;23.10;;;153.80;1920.00;;;;;;4970060;28;20051;-72
2021/03/21 11:59:18;;;;;;;35.83;23.55;;;153.80;1920.00;;;;;;4956458;28;20189;-72
2021/03/21 12:01:48;;;;;;;31.75;23.83;;;153.80;1920.00;;;;;;4962734;28;20066;-72
2021/03/21 12:04:31;;;;;;;33.05;24.00;;;153.80;1894.40;;;;;;4971930;28;20096;-73
2021/03/21 12:06:58;;;;;;;32.45;23.38;;;153.60;1894.40;;;;;;4953171;28;20473;-70
2021/03/21 12:09:34;;;;;;;33.58;23.13;;;128.90;1945.60;;;;;;4966718;28;20129;-69
2021/03/21 12:12:24;;;;;;;29.85;23.13;;;128.80;1945.60;;;;;;4965302;28;20059;-69
2021/03/21 12:14:50;;;;;;;33.20;22.65;;;128.70;1945.60;;;;;;4968985;28;20122;-69
2021/03/21 12:17:24;;;;;;;30.95;22.70;;;128.50;1996.80;;;;;;5046131;28;20109;-68
2021/03/21 12:19:52;;;;;;;34.67;23.50;;;128.60;2022.40;;;;;;5053482;28;20501;-69
2021/03/21 12:22:34;;;;;;;32.03;23.25;;;128.40;2022.40;;;;;;5048002;28;20060;-70
2021/03/21 12:25:11;;;;;;;31.60;22.95;;;128.40;2048.00;;;;;;5041741;28;20029;-69
2021/03/21 12:27:39;;;;;;;31.58;23.38;;;128.40;2048.00;;;;;;5046827;28;20017;-71
2021/03/21 12:30:26;;;;;;;34.13;23.75;;;128.20;2048.00;;;;;;5045767;28;20061;-67
2021/03/21 12:32:53;;;;;;;33.95;23.23;;;128.30;2073.60;;;;;;5032088;28;20048;-68
2021/03/21 12:35:21;;;;;;;31.30;21.13;;;128.30;2073.60;;;;;;5053410;28;20124;-67
2021/03/21 12:37:57;;;;;;;27.13;18.85;;;128.20;2073.60;;;;;;5044511;28;20029;-70
2021/03/21 12:40:33;;;;;;;25.80;19.17;;;103.30;2099.20;;;;;;5048092;28;20024;-71
2021/03/21 12:43:22;;;;;;;27.77;19.88;;;103.30;2150.40;;;;;;5042543;28;20049;-73
2021/03/21 12:46:10;;;;;;;25.38;19.63;;;128.00;2124.80;;;;;;5035985;28;20494;-78
2021/03/21 12:48:51;;;;;;;27.15;18.50;;;103.20;2150.40;;;;;;5026211;28;20037;-71
2021/03/21 12:51:32;;;;;;;27.83;20.27;;;128.00;2124.80;;;;;;5041595;28;20029;-66
2021/03/21 12:54:01;;;;;;;28.45;20.83;;;103.30;2124.80;;;;;;5044881;28;20037;-66
2021/03/21 12:56:27;;;;;;;27.15;18.02;;;103.30;2150.40;;;;;;5039843;28;20528;-70